createdAt,value
2018-06-17T00:05:42.277Z,12.87
2018-06-17T00:15:40.825Z,12.77
2018-06-17T00:25:37.590Z,12.78
2018-06-17T00:35:33.985Z,12.68
2018-06-17T00:45:31.345Z,12.58
2018-06-17T00:55:30.448Z,12.48
2018-06-17T01:05:27.433Z,12.29
2018-06-17T01:15:26.618Z,12.29
2018-06-17T01:25:23.011Z,12.29
2018-06-17T01:35:19.064Z,12.29
2018-06-17T01:45:16.923Z,12.39
2018-06-17T01:55:12.378Z,12.29
2018-06-17T02:05:11.359Z,12.29
2018-06-17T02:15:09.117Z,12.19
2018-06-17T02:25:04.704Z,12.29
2018-06-17T02:35:02.003Z,12.19
2018-06-17T02:44:58.994Z,12.19
2018-06-17T02:54:53.596Z,12.09
2018-06-17T03:04:52.874Z,11.99
2018-06-17T03:14:48.255Z,12.09
2018-06-17T03:24:46.089Z,12.19
2018-06-17T03:34:40.218Z,12.29
2018-06-17T03:44:22.108Z,12.38
2018-06-17T03:54:19.371Z,12.68
2018-06-17T04:04:16.254Z,12.87
2018-06-17T04:14:15.540Z,13.36
2018-06-17T04:24:11.123Z,13.56
2018-06-17T04:34:04.745Z,13.95
2018-06-17T04:44:00.301Z,14.44
2018-06-17T04:53:54.016Z,14.93
2018-06-17T05:03:50.898Z,15.81
2018-06-17T05:13:47.609Z,16.39
2018-06-17T05:23:38.268Z,17.08
2018-06-17T05:33:32.804Z,17.37
2018-06-17T05:43:25.350Z,17.76
2018-06-17T05:53:22.051Z,18.06
2018-06-17T06:03:17.180Z,18.15
2018-06-17T06:13:06.532Z,18.45
2018-06-17T06:23:05.300Z,18.94
2018-06-17T06:32:59.204Z,19.13
2018-06-17T06:42:51.101Z,19.33
2018-06-17T06:52:46.895Z,19.72
2018-06-17T07:02:44.328Z,20.11
2018-06-17T07:12:42.956Z,20.40
2018-06-17T07:22:37.594Z,20.79
2018-06-17T07:32:32.055Z,21.19
2018-06-17T07:42:26.537Z,21.19
2018-06-17T07:52:20.861Z,21.38
2018-06-17T08:02:19.068Z,21.77
2018-06-17T08:12:15.368Z,22.56
2018-06-17T08:22:12.880Z,22.95
2018-06-17T08:32:08.496Z,22.95
2018-06-17T08:42:05.740Z,23.05
2018-06-17T08:52:01.330Z,23.34
2018-06-17T09:01:58.900Z,23.44
2018-06-17T09:11:42.593Z,23.44
2018-06-17T09:21:41.553Z,23.83
2018-06-17T09:31:35.042Z,24.12
2018-06-17T09:41:28.493Z,24.32
2018-06-17T09:51:26.348Z,24.42
2018-06-17T10:01:25.475Z,24.22
2018-06-17T10:11:00.810Z,24.90
2018-06-17T10:20:38.877Z,25.19
2018-06-17T10:30:15.824Z,24.90
2018-06-17T10:40:13.558Z,25.29
2018-06-17T10:50:09.747Z,24.81
2018-06-17T11:00:06.267Z,24.51
2018-06-17T11:10:02.973Z,24.61
2018-06-17T11:19:42.817Z,25.39
2018-06-17T11:29:22.276Z,26.56
2018-06-17T11:39:02.410Z,27.74
2018-06-17T11:48:55.046Z,25.10
2018-06-17T11:58:50.775Z,24.41
2018-06-17T12:08:44.240Z,23.93
2018-06-17T12:18:34.052Z,23.44
2018-06-17T12:28:24.135Z,22.75
2018-06-17T12:38:17.220Z,22.36
2018-06-17T12:48:11.961Z,22.36
2018-06-17T12:58:06.789Z,22.36
2018-06-17T13:08:00.395Z,22.56
2018-06-17T13:17:47.909Z,22.65
2018-06-17T13:27:45.040Z,22.95
2018-06-17T13:37:38.550Z,23.53
2018-06-17T13:47:37.570Z,23.73
2018-06-17T13:57:27.229Z,23.83
2018-06-17T14:07:24.050Z,23.73
2018-06-17T14:17:16.168Z,23.63
2018-06-17T14:27:12.849Z,23.44
2018-06-17T14:37:09.309Z,23.53
2018-06-17T14:47:04.036Z,23.53
2018-06-17T14:56:57.866Z,23.34
2018-06-17T15:06:55.195Z,23.05
2018-06-17T15:16:52.306Z,22.65
2018-06-17T15:26:41.919Z,22.46
2018-06-17T15:36:37.743Z,22.56
2018-06-17T15:46:29.448Z,22.56
2018-06-17T15:56:25.140Z,22.46
2018-06-17T16:06:22.725Z,22.46
2018-06-17T16:16:19.609Z,22.46
2018-06-17T16:26:17.014Z,22.46
2018-06-17T16:36:12.720Z,22.75
2018-06-17T16:46:11.315Z,22.85
2018-06-17T16:56:09.427Z,22.56
2018-06-17T17:06:03.481Z,22.56
2018-06-17T17:16:01.867Z,22.56
2018-06-17T17:26:00.543Z,22.36
2018-06-17T17:35:57.380Z,22.17
2018-06-17T17:45:52.594Z,21.97
2018-06-17T17:55:50.759Z,21.87
2018-06-17T18:05:48.765Z,21.68
2018-06-17T18:15:45.335Z,21.38
2018-06-17T18:25:43.176Z,20.99
2018-06-17T18:35:39.490Z,20.40
2018-06-17T18:45:36.190Z,20.11
2018-06-17T18:55:31.364Z,19.92
2018-06-17T19:05:26.705Z,19.52
2018-06-17T19:15:22.096Z,19.13
2018-06-17T19:25:14.445Z,18.94
2018-06-17T19:35:09.261Z,18.84
2018-06-17T19:45:05.700Z,18.55
2018-06-17T19:54:58.975Z,18.45
2018-06-17T20:04:51.843Z,18.25
2018-06-17T20:14:50.439Z,18.55
2018-06-17T20:24:45.189Z,18.55
2018-06-17T20:34:36.909Z,17.76
2018-06-17T20:44:31.136Z,17.18
2018-06-17T20:54:27.931Z,16.79
2018-06-17T21:04:26.015Z,16.49
2018-06-17T21:14:20.708Z,16.20
2018-06-17T21:24:16.555Z,15.90
2018-06-17T21:34:14.987Z,15.71
2018-06-17T21:44:11.947Z,15.61
2018-06-17T21:54:10.789Z,15.42
2018-06-17T22:04:08.874Z,15.32
2018-06-17T22:14:04.275Z,15.22
2018-06-17T22:24:03.083Z,15.12
2018-06-17T22:34:01.742Z,15.12
2018-06-17T22:43:59.119Z,15.12
2018-06-17T22:53:56.059Z,15.02
2018-06-17T23:03:54.983Z,15.03
2018-06-17T23:13:53.386Z,14.93
2018-06-17T23:23:49.129Z,14.83
2018-06-17T23:33:45.574Z,15.02
2018-06-17T23:43:43.771Z,15.71
2018-06-17T23:53:42.026Z,16.20
